Time;durP1;ratioP1;P1;durP2;ratioP2;P2;SDS_P1;SDS_P2;PMS_P1;PMS_P2;Temp;Humidity;BMP_temperature;BMP_pressure;BME280_temperature;BME280_humidity;BME280_pressure;Samples;Min_cycle;Max_cycle;Signal;HPM_P1;HPM_P2
2024/04/23 00:00:15;;;;;;;;;;;19.70;55.00;;;;;;5427536;26;19929;-41
2024/04/23 00:02:41;;;;;;;;;;;19.70;55.00;;;;;;5425346;26;19933;-40
2024/04/23 00:05:07;;;;;;;;;;;19.60;54.90;;;;;;5427553;26;19950;-40
2024/04/23 00:07:32;;;;;;;;;;;19.60;54.80;;;;;;5426850;26;19929;-40
2024/04/23 00:09:58;;;;;;;;;;;19.60;54.80;;;;;;5427406;26;20059;-40
2024/04/23 00:12:24;;;;;;;;;;;19.60;54.80;;;;;;5427364;26;19928;-39
2024/04/23 00:14:50;;;;;;;;;;;19.60;54.80;;;;;;5426911;26;19929;-39
2024/04/23 00:17:16;;;;;;;;;;;19.60;54.70;;;;;;5427091;26;19975;-39
2024/04/23 00:19:42;;;;;;;;;;;19.60;54.70;;;;;;5426876;26;19933;-40
2024/04/23 00:22:08;;;;;;;;;;;19.60;54.70;;;;;;5427452;26;19929;-39
2024/04/23 00:24:35;;;;;;;;;;;19.60;54.60;;;;;;5426908;26;19940;-41
2024/04/23 00:27:01;;;;;;;;;;;19.60;54.60;;;;;;5427144;26;19975;-40
2024/04/23 00:29:28;;;;;;;;;;;19.50;54.60;;;;;;5426479;26;19941;-42
2024/04/23 00:31:54;;;;;;;;;;;19.50;54.60;;;;;;5395339;26;19929;-41
2024/04/23 00:34:19;;;;;;;;;;;19.50;54.60;;;;;;5427299;26;19975;-40
2024/04/23 00:36:55;;;;;;;;;;;19.50;54.50;;;;;;5425352;26;19944;-40
2024/04/23 00:39:21;;;;;;;;;;;19.50;54.50;;;;;;5427348;26;19936;-41
2024/04/23 00:41:49;;;;;;;;;;;19.50;54.50;;;;;;5426378;26;19937;-40
2024/04/23 00:44:14;;;;;;;;;;;19.40;54.50;;;;;;5426587;26;19974;-40
2024/04/23 00:46:40;;;;;;;;;;;19.40;54.50;;;;;;5425449;26;19940;-40
2024/04/23 00:49:06;;;;;;;;;;;19.40;54.50;;;;;;5426458;26;19936;-39
2024/04/23 00:51:32;;;;;;;;;;;19.40;54.50;;;;;;5392201;26;20680;-40
2024/04/23 00:53:58;;;;;;;;;;;19.40;54.50;;;;;;5426831;26;20381;-40
2024/04/23 00:56:26;;;;;;;;;;;19.40;54.60;;;;;;5426422;26;19929;-41
2024/04/23 00:58:52;;;;;;;;;;;19.40;54.50;;;;;;5426365;26;20004;-39
2024/04/23 01:01:18;;;;;;;;;;;19.40;54.60;;;;;;5390830;26;19930;-40
2024/04/23 01:03:44;;;;;;;;;;;19.30;54.60;;;;;;5426220;26;19937;-40
2024/04/23 01:06:10;;;;;;;;;;;19.30;54.60;;;;;;5426714;26;20262;-40
2024/04/23 01:08:36;;;;;;;;;;;19.30;54.60;;;;;;5426229;26;19936;-40
2024/04/23 01:11:02;;;;;;;;;;;19.30;54.70;;;;;;5426205;26;19936;-40
2024/04/23 01:13:29;;;;;;;;;;;19.30;54.70;;;;;;5425667;26;19936;-40
2024/04/23 01:15:55;;;;;;;;;;;19.30;54.70;;;;;;5426204;26;20003;-40
2024/04/23 01:18:21;;;;;;;;;;;19.20;54.70;;;;;;5426430;26;20378;-39
2024/04/23 01:20:48;;;;;;;;;;;19.20;54.70;;;;;;5383922;26;19937;-40
2024/04/23 01:23:16;;;;;;;;;;;19.20;54.80;;;;;;5392967;26;19940;-41
2024/04/23 01:25:43;;;;;;;;;;;19.20;54.80;;;;;;5424602;26;19933;-40
2024/04/23 01:28:09;;;;;;;;;;;19.20;54.80;;;;;;5380762;26;19946;-40
2024/04/23 01:30:35;;;;;;;;;;;19.20;54.90;;;;;;5424739;26;19933;-38
2024/04/23 01:33:01;;;;;;;;;;;19.10;54.80;;;;;;5384568;26;20000;-39
2024/04/23 01:35:28;;;;;;;;;;;19.10;54.90;;;;;;5390323;26;20000;-40
2024/04/23 01:37:54;;;;;;;;;;;19.10;54.90;;;;;;5390376;26;20405;-40
2024/04/23 01:40:20;;;;;;;;;;;19.10;55.00;;;;;;5390204;26;20019;-42
2024/04/23 01:42:47;;;;;;;;;;;19.00;54.90;;;;;;5389870;26;19929;-41
2024/04/23 01:45:15;;;;;;;;;;;19.00;55.00;;;;;;5389992;26;19937;-39
2024/04/23 01:47:44;;;;;;;;;;;19.00;55.00;;;;;;5389782;26;19976;-39
2024/04/23 01:50:11;;;;;;;;;;;19.00;55.00;;;;;;5389918;26;19934;-39
2024/04/23 01:52:36;;;;;;;;;;;19.00;55.10;;;;;;5389910;26;19941;-40
2024/04/23 01:55:03;;;;;;;;;;;19.00;55.10;;;;;;5390233;26;19930;-40
2024/04/23 01:57:29;;;;;;;;;;;18.90;55.10;;;;;;5383791;26;19930;-40
2024/04/23 02:00:05;;;;;;;;;;;18.90;55.10;;;;;;5373599;26;19940;-40
2024/04/23 02:02:31;;;;;;;;;;;18.90;55.20;;;;;;5389584;26;19941;-40
2024/04/23 02:04:57;;;;;;;;;;;18.90;55.20;;;;;;5377690;26;19937;-40
2024/04/23 02:07:23;;;;;;;;;;;18.90;55.30;;;;;;5389895;26;20375;-40
2024/04/23 02:09:49;;;;;;;;;;;18.90;55.30;;;;;;5389480;26;19938;-40
2024/04/23 02:12:15;;;;;;;;;;;18.80;55.30;;;;;;5388964;26;19929;-40
2024/04/23 02:14:41;;;;;;;;;;;18.80;55.40;;;;;;5389640;26;19937;-40
2024/04/23 02:17:07;;;;;;;;;;;18.80;55.40;;;;;;5390003;26;19930;-40
2024/04/23 02:19:33;;;;;;;;;;;18.80;55.40;;;;;;5388133;26;19941;-40
2024/04/23 02:21:59;;;;;;;;;;;18.80;55.50;;;;;;5390237;26;19933;-39
2024/04/23 02:24:25;;;;;;;;;;;18.70;55.50;;;;;;5387830;26;19930;-42
2024/04/23 02:26:52;;;;;;;;;;;18.80;55.50;;;;;;5373886;26;19934;-40
2024/04/23 02:29:18;;;;;;;;;;;18.70;55.60;;;;;;5383807;26;19929;-41
2024/04/23 02:31:44;;;;;;;;;;;18.70;55.60;;;;;;5388658;26;19930;-41
2024/04/23 02:34:11;;;;;;;;;;;18.70;55.60;;;;;;5419940;26;19929;-39
2024/04/23 02:36:37;;;;;;;;;;;18.70;55.70;;;;;;5424666;26;19929;-39
2024/04/23 02:39:04;;;;;;;;;;;18.60;55.70;;;;;;5425379;26;19929;-40
2024/04/23 02:41:30;;;;;;;;;;;18.60;55.70;;;;;;5424418;26;19929;-42
2024/04/23 02:43:56;;;;;;;;;;;18.60;55.70;;;;;;5425018;26;19941;-42
2024/04/23 02:46:21;;;;;;;;;;;18.60;55.80;;;;;;5424443;26;19933;-41
2024/04/23 02:48:47;;;;;;;;;;;18.60;55.80;;;;;;5425033;26;20376;-41
2024/04/23 02:51:13;;;;;;;;;;;18.60;55.80;;;;;;5425056;26;19937;-43
2024/04/23 02:53:39;;;;;;;;;;;18.50;55.80;;;;;;5424554;26;19975;-42
2024/04/23 02:56:05;;;;;;;;;;;18.50;55.90;;;;;;5424966;26;19929;-40
2024/04/23 02:58:31;;;;;;;;;;;18.50;55.90;;;;;;5424593;26;19937;-40
2024/04/23 03:00:57;;;;;;;;;;;18.50;55.90;;;;;;5423978;26;19929;-39
2024/04/23 03:03:23;;;;;;;;;;;18.50;55.90;;;;;;5420915;26;19929;-39
2024/04/23 03:05:49;;;;;;;;;;;18.40;56.00;;;;;;5424187;26;19933;-39
2024/04/23 03:08:15;;;;;;;;;;;18.40;56.00;;;;;;5425157;26;19936;-41
2024/04/23 03:10:41;;;;;;;;;;;18.40;56.10;;;;;;5424271;26;19961;-40
2024/04/23 03:13:07;;;;;;;;;;;18.40;56.10;;;;;;5424564;26;19933;-40
2024/04/23 03:15:32;;;;;;;;;;;18.40;56.10;;;;;;5424072;26;19933;-41
2024/04/23 03:17:58;;;;;;;;;;;18.30;56.10;;;;;;5424215;26;19936;-44
2024/04/23 03:20:24;;;;;;;;;;;18.30;56.20;;;;;;5423045;26;19945;-41
2024/04/23 03:22:50;;;;;;;;;;;18.30;56.20;;;;;;5412370;26;19956;-41
2024/04/23 03:25:16;;;;;;;;;;;18.30;56.30;;;;;;5424416;26;19929;-41
2024/04/23 03:27:42;;;;;;;;;;;18.30;56.30;;;;;;5423857;26;19929;-46
2024/04/23 03:30:08;;;;;;;;;;;18.30;56.30;;;;;;5424230;26;19950;-42
2024/04/23 03:32:34;;;;;;;;;;;18.20;56.40;;;;;;5419747;26;19933;-41
2024/04/23 03:35:00;;;;;;;;;;;18.20;56.40;;;;;;5424496;26;19936;-43
2024/04/23 03:37:26;;;;;;;;;;;18.20;56.40;;;;;;5426020;26;19933;-40
2024/04/23 03:39:52;;;;;;;;;;;18.20;56.40;;;;;;5427996;26;19929;-41
2024/04/23 03:42:18;;;;;;;;;;;18.20;56.50;;;;;;5427634;26;19929;-42
2024/04/23 03:44:44;;;;;;;;;;;18.20;56.50;;;;;;5427180;26;19936;-42
2024/04/23 03:47:10;;;;;;;;;;;18.10;56.50;;;;;;5427913;26;19961;-44
2024/04/23 03:49:36;;;;;;;;;;;18.10;56.50;;;;;;5427582;26;20370;-42
2024/04/23 03:52:07;;;;;;;;;;;18.10;56.60;;;;;;5427833;26;20269;-41
2024/04/23 03:54:34;;;;;;;;;;;18.10;56.60;;;;;;5427404;26;19933;-40
2024/04/23 03:57:00;;;;;;;;;;;18.00;56.70;;;;;;5428027;26;19975;-41
2024/04/23 03:59:26;;;;;;;;;;;18.00;56.70;;;;;;5427528;26;19936;-40
2024/04/23 04:06:03;;;;;;;;;;;18.00;56.80;;;;;;5426396;26;19929;-41
2024/04/23 04:07:22;;;;;;;;;;;18.00;56.80;;;;;;5427926;26;19936;-41
2024/04/23 04:09:48;;;;;;;;;;;17.90;56.80;;;;;;5427351;26;19956;-41
2024/04/23 04:12:13;;;;;;;;;;;18.00;56.90;;;;;;5427662;26;19933;-40
2024/04/23 04:14:39;;;;;;;;;;;17.90;56.90;;;;;;5426937;26;19941;-42
2024/04/23 04:17:05;;;;;;;;;;;17.90;57.00;;;;;;5427233;26;20454;-44
2024/04/23 04:19:32;;;;;;;;;;;17.90;57.00;;;;;;5414124;26;19940;-41
2024/04/23 04:21:58;;;;;;;;;;;17.90;57.00;;;;;;5404173;26;19937;-41
2024/04/23 04:24:24;;;;;;;;;;;17.80;57.00;;;;;;5419531;26;19960;-40
2024/04/23 04:26:50;;;;;;;;;;;17.80;57.10;;;;;;5427247;26;19940;-40
2024/04/23 04:29:16;;;;;;;;;;;17.80;57.10;;;;;;5427592;26;19929;-40
2024/04/23 04:31:42;;;;;;;;;;;17.80;57.10;;;;;;5426389;26;19936;-40
2024/04/23 04:34:07;;;;;;;;;;;17.80;57.20;;;;;;5424258;26;19936;-43
2024/04/23 04:36:33;;;;;;;;;;;17.80;57.20;;;;;;5426858;26;20376;-40
2024/04/23 04:38:59;;;;;;;;;;;17.70;57.20;;;;;;5428309;26;19936;-40
2024/04/23 04:41:25;;;;;;;;;;;17.70;57.30;;;;;;5427003;26;19929;-42
2024/04/23 04:43:51;;;;;;;;;;;17.70;57.30;;;;;;5427164;26;19929;-42
2024/04/23 04:46:17;;;;;;;;;;;17.70;57.30;;;;;;5427549;26;20361;-42
2024/04/23 04:48:43;;;;;;;;;;;17.70;57.40;;;;;;5394366;26;19989;-41
2024/04/23 04:51:09;;;;;;;;;;;17.70;57.40;;;;;;5427144;26;19937;-41
2024/04/23 04:53:35;;;;;;;;;;;17.60;57.40;;;;;;5421381;26;19942;-41
2024/04/23 04:56:01;;;;;;;;;;;17.60;57.40;;;;;;5427127;26;19929;-42
2024/04/23 04:58:27;;;;;;;;;;;17.60;57.50;;;;;;5426847;26;19929;-40
2024/04/23 05:00:53;;;;;;;;;;;17.60;57.50;;;;;;5427019;26;19935;-42
2024/04/23 05:03:19;;;;;;;;;;;17.60;57.60;;;;;;5425801;26;19929;-41
2024/04/23 05:05:45;;;;;;;;;;;17.60;57.60;;;;;;5426532;26;19928;-41
2024/04/23 05:08:11;;;;;;;;;;;17.50;57.50;;;;;;5426600;26;19937;-41
2024/04/23 05:10:36;;;;;;;;;;;17.50;57.60;;;;;;5426345;26;19929;-41
2024/04/23 05:13:02;;;;;;;;;;;17.50;57.60;;;;;;5426275;26;19933;-41
2024/04/23 05:15:28;;;;;;;;;;;17.50;57.60;;;;;;5425389;26;19975;-41
2024/04/23 05:17:54;;;;;;;;;;;17.50;57.70;;;;;;5426291;26;19929;-42
2024/04/23 05:20:20;;;;;;;;;;;17.50;57.80;;;;;;5426663;26;19935;-42
2024/04/23 05:22:46;;;;;;;;;;;17.40;57.70;;;;;;5426328;26;19948;-41
2024/04/23 05:25:12;;;;;;;;;;;17.40;57.80;;;;;;5426702;26;19929;-44
2024/04/23 05:27:37;;;;;;;;;;;17.40;57.80;;;;;;5426692;26;20472;-41
2024/04/23 05:30:04;;;;;;;;;;;17.40;57.80;;;;;;5426486;26;19983;-42
2024/04/23 05:32:48;;;;;;;;;;;17.30;57.80;;;;;;5425672;26;19929;-41
2024/04/23 05:35:14;;;;;;;;;;;17.40;57.90;;;;;;5417731;26;19936;-42
2024/04/23 05:37:40;;;;;;;;;;;17.30;57.90;;;;;;5425231;26;19975;-40
2024/04/23 05:40:08;;;;;;;;;;;17.30;58.00;;;;;;5426529;26;20258;-42
2024/04/23 05:42:34;;;;;;;;;;;17.30;57.90;;;;;;5425850;26;19936;-42
2024/04/23 05:45:00;;;;;;;;;;;17.30;58.00;;;;;;5425672;26;19936;-41
2024/04/23 05:47:26;;;;;;;;;;;17.20;58.00;;;;;;5426386;26;19936;-41
2024/04/23 05:50:11;;;;;;;;;;;17.20;58.00;;;;;;5425715;26;20350;-42
2024/04/23 05:52:58;;;;;;;;;;;17.20;58.00;;;;;;5425900;26;19929;-42
2024/04/23 05:55:34;;;;;;;;;;;17.20;58.00;;;;;;5426471;26;20014;-42
2024/04/23 05:58:00;;;;;;;;;;;17.20;58.10;;;;;;5425987;26;19940;-42
2024/04/23 06:00:25;;;;;;;;;;;17.20;58.10;;;;;;5424160;26;19929;-41
2024/04/23 06:03:11;;;;;;;;;;;17.10;58.00;;;;;;5425198;26;19940;-42
2024/04/23 06:05:37;;;;;;;;;;;17.10;58.20;;;;;;5351987;26;19930;-42
2024/04/23 06:08:04;;;;;;;;;;;17.10;58.20;;;;;;5352394;26;19937;-42
2024/04/23 06:10:30;;;;;;;;;;;17.10;58.20;;;;;;5351898;26;19930;-45
2024/04/23 06:12:56;;;;;;;;;;;17.00;58.30;;;;;;5352186;26;19979;-44
2024/04/23 06:15:22;;;;;;;;;;;17.00;58.30;;;;;;5352218;26;19930;-41
2024/04/23 06:17:48;;;;;;;;;;;17.00;58.30;;;;;;5351799;26;19949;-43
2024/04/23 06:20:14;;;;;;;;;;;17.00;58.30;;;;;;5351817;26;19957;-40
2024/04/23 06:22:40;;;;;;;;;;;17.00;58.40;;;;;;5351415;26;19953;-41
2024/04/23 06:25:07;;;;;;;;;;;16.90;58.40;;;;;;5352036;26;20291;-41
2024/04/23 06:27:33;;;;;;;;;;;16.90;58.40;;;;;;5350318;26;19930;-41
2024/04/23 06:30:06;;;;;;;;;;;16.90;58.40;;;;;;5351942;26;19940;-42
2024/04/23 06:32:32;;;;;;;;;;;16.90;58.40;;;;;;5350390;26;19930;-41
2024/04/23 06:34:58;;;;;;;;;;;16.90;58.40;;;;;;5351570;26;19937;-44
2024/04/23 06:37:24;;;;;;;;;;;16.90;58.50;;;;;;5351750;26;19999;-43
2024/04/23 06:39:49;;;;;;;;;;;16.90;58.50;;;;;;5351330;26;19930;-42
2024/04/23 06:42:15;;;;;;;;;;;16.90;58.60;;;;;;5373393;26;19940;-42
2024/04/23 06:44:41;;;;;;;;;;;16.80;58.60;;;;;;5424244;26;19929;-42
2024/04/23 06:47:07;;;;;;;;;;;16.80;58.60;;;;;;5425006;26;19929;-41
2024/04/23 06:49:34;;;;;;;;;;;16.80;58.70;;;;;;5424275;26;19929;-45
2024/04/23 06:52:00;;;;;;;;;;;16.80;58.70;;;;;;5424629;26;19929;-44
2024/04/23 06:54:26;;;;;;;;;;;16.80;58.80;;;;;;5424522;26;19935;-43
2024/04/23 06:56:52;;;;;;;;;;;16.70;58.80;;;;;;5424307;26;19929;-42
2024/04/23 06:59:18;;;;;;;;;;;16.70;58.80;;;;;;5424715;26;19936;-45
2024/04/23 07:01:44;;;;;;;;;;;16.70;58.80;;;;;;5423476;26;19933;-41
2024/04/23 07:04:10;;;;;;;;;;;16.70;58.80;;;;;;5424011;26;19929;-42
2024/04/23 07:06:36;;;;;;;;;;;16.70;58.80;;;;;;5424277;26;19941;-42
2024/04/23 07:09:06;;;;;;;;;;;16.60;58.80;;;;;;5424340;26;20021;-41
2024/04/23 07:11:32;;;;;;;;;;;16.60;58.80;;;;;;5425702;26;19929;-42
2024/04/23 07:13:58;;;;;;;;;;;16.60;58.90;;;;;;5414923;26;19935;-40
2024/04/23 07:16:24;;;;;;;;;;;16.60;58.90;;;;;;5428389;26;19939;-41
2024/04/23 07:18:50;;;;;;;;;;;16.60;59.00;;;;;;5427864;26;19935;-43
2024/04/23 07:21:16;;;;;;;;;;;16.60;59.00;;;;;;5427785;26;19953;-42
2024/04/23 07:23:42;;;;;;;;;;;16.50;59.00;;;;;;5426979;26;19929;-42
2024/04/23 07:26:08;;;;;;;;;;;16.50;59.10;;;;;;5427991;26;19940;-43
2024/04/23 07:28:33;;;;;;;;;;;16.50;59.10;;;;;;5427280;26;19975;-42
2024/04/23 07:31:00;;;;;;;;;;;16.50;59.10;;;;;;5427402;26;19933;-40
2024/04/23 07:33:26;;;;;;;;;;;16.50;59.20;;;;;;5427145;26;19933;-42
2024/04/23 07:35:52;;;;;;;;;;;16.50;59.20;;;;;;5426961;26;20361;-41
2024/04/23 07:38:38;;;;;;;;;;;16.50;59.20;;;;;;5316441;27;19947;-41
2024/04/23 07:41:04;;;;;;;;;;;16.50;59.20;;;;;;5304940;27;20050;-41
2024/04/23 07:43:30;;;;;;;;;;;16.40;59.10;;;;;;5316847;26;19966;-41
2024/04/23 07:45:56;;;;;;;;;;;16.40;59.20;;;;;;5300375;27;20367;-42
2024/04/23 07:48:21;;;;;;;;;;;16.40;59.20;;;;;;5301888;27;20333;-41
2024/04/23 07:50:47;;;;;;;;;;;16.40;59.20;;;;;;5303697;27;19992;-43
2024/04/23 07:53:13;;;;;;;;;;;16.40;59.30;;;;;;5304098;27;19935;-41
2024/04/23 07:55:39;;;;;;;;;;;16.30;59.30;;;;;;5299738;27;20009;-41
2024/04/23 07:58:05;;;;;;;;;;;16.30;59.30;;;;;;5299998;27;20399;-42
2024/04/23 08:00:31;;;;;;;;;;;16.30;59.40;;;;;;5299611;27;19931;-41
2024/04/23 08:02:57;;;;;;;;;;;16.30;59.40;;;;;;5316978;27;19962;-44
2024/04/23 08:05:23;;;;;;;;;;;16.30;59.50;;;;;;5318424;27;19931;-42
2024/04/23 08:07:49;;;;;;;;;;;16.20;59.40;;;;;;5306326;26;19938;-42
2024/04/23 08:10:17;;;;;;;;;;;16.20;59.40;;;;;;5296547;27;20324;-42
2024/04/23 08:12:43;;;;;;;;;;;16.20;59.50;;;;;;5302157;27;19931;-42
2024/04/23 08:15:09;;;;;;;;;;;16.20;59.50;;;;;;5344991;26;19936;-41
2024/04/23 08:17:35;;;;;;;;;;;16.20;59.50;;;;;;5420652;26;19932;-44
2024/04/23 08:20:01;;;;;;;;;;;16.20;59.60;;;;;;5426942;26;19933;-42
2024/04/23 08:22:27;;;;;;;;;;;16.10;59.60;;;;;;5425199;26;20431;-43
2024/04/23 08:24:53;;;;;;;;;;;16.10;59.60;;;;;;5426479;26;19933;-43
2024/04/23 08:27:19;;;;;;;;;;;16.10;59.60;;;;;;5427098;26;20286;-42
2024/04/23 08:29:45;;;;;;;;;;;16.10;59.70;;;;;;5419674;26;19929;-43
2024/04/23 08:32:10;;;;;;;;;;;16.10;59.70;;;;;;5426552;26;19928;-41
2024/04/23 08:34:37;;;;;;;;;;;16.10;59.70;;;;;;5426549;26;20265;-42
2024/04/23 08:37:07;;;;;;;;;;;16.00;59.80;;;;;;5426473;26;19979;-44
2024/04/23 08:39:33;;;;;;;;;;;16.00;59.80;;;;;;5426347;26;19937;-41
2024/04/23 08:41:59;;;;;;;;;;;16.00;59.80;;;;;;5413819;26;19936;-43
2024/04/23 08:44:25;;;;;;;;;;;16.00;59.80;;;;;;5418763;26;19941;-41
2024/04/23 08:46:51;;;;;;;;;;;16.00;59.80;;;;;;5426987;26;19929;-41
2024/04/23 08:49:17;;;;;;;;;;;16.00;59.80;;;;;;5426906;26;19975;-45
2024/04/23 08:51:43;;;;;;;;;;;15.90;59.80;;;;;;5425610;26;19935;-41
2024/04/23 08:54:09;;;;;;;;;;;16.00;59.90;;;;;;5426799;26;19937;-43
2024/04/23 08:56:35;;;;;;;;;;;15.90;59.90;;;;;;5426732;26;19975;-44
2024/04/23 08:59:11;;;;;;;;;;;15.90;59.90;;;;;;5426811;26;19940;-41
2024/04/23 09:01:38;;;;;;;;;;;15.90;60.00;;;;;;5424545;26;19998;-41
2024/04/23 09:04:04;;;;;;;;;;;15.90;60.00;;;;;;5410115;26;19940;-43
2024/04/23 09:06:30;;;;;;;;;;;15.80;60.00;;;;;;5377640;26;19929;-41
2024/04/23 09:08:59;;;;;;;;;;;15.80;60.00;;;;;;5406118;26;19929;-42
2024/04/23 09:11:25;;;;;;;;;;;15.80;60.00;;;;;;5419214;26;19933;-41
2024/04/23 09:13:51;;;;;;;;;;;15.80;60.00;;;;;;5425848;26;19975;-41
2024/04/23 09:16:17;;;;;;;;;;;15.80;60.10;;;;;;5426563;26;19941;-41
2024/04/23 09:18:43;;;;;;;;;;;15.80;60.10;;;;;;5425803;26;19929;-44
2024/04/23 09:21:09;;;;;;;;;;;15.80;60.10;;;;;;5422601;26;19937;-41
2024/04/23 09:23:35;;;;;;;;;;;15.80;60.20;;;;;;5390753;26;19936;-41
2024/04/23 09:26:01;;;;;;;;;;;15.70;60.20;;;;;;5426386;26;19929;-42
2024/04/23 09:28:30;;;;;;;;;;;15.70;60.20;;;;;;5380840;26;19929;-41
2024/04/23 09:30:56;;;;;;;;;;;15.70;60.20;;;;;;5411886;26;19940;-42
2024/04/23 09:33:23;;;;;;;;;;;15.70;60.20;;;;;;5419572;26;19957;-43
2024/04/23 09:36:09;;;;;;;;;;;15.70;60.30;;;;;;5424765;26;19941;-42
2024/04/23 09:38:35;;;;;;;;;;;15.70;60.30;;;;;;5425486;26;19936;-41
2024/04/23 09:41:04;;;;;;;;;;;15.60;60.30;;;;;;5426136;26;19929;-41
2024/04/23 09:43:30;;;;;;;;;;;15.60;60.30;;;;;;5425354;26;19936;-40
2024/04/23 09:45:56;;;;;;;;;;;15.60;60.30;;;;;;5425765;26;20366;-41
2024/04/23 09:48:31;;;;;;;;;;;15.60;60.30;;;;;;5426005;26;19929;-43
2024/04/23 09:51:00;;;;;;;;;;;15.60;60.30;;;;;;5424994;26;19929;-43
2024/04/23 09:53:29;;;;;;;;;;;15.60;60.40;;;;;;5420398;26;19929;-43
2024/04/23 09:56:02;;;;;;;;;;;15.60;60.50;;;;;;5412135;26;19929;-42
2024/04/23 09:58:34;;;;;;;;;;;15.60;60.50;;;;;;5394070;26;19933;-42
2024/04/23 10:01:00;;;;;;;;;;;15.50;60.60;;;;;;5388236;26;19936;-48
2024/04/23 10:03:26;;;;;;;;;;;15.50;60.50;;;;;;5424273;26;19998;-41
2024/04/23 10:06:12;;;;;;;;;;;15.50;60.50;;;;;;5425396;26;19933;-41
2024/04/23 10:08:40;;;;;;;;;;;15.50;60.60;;;;;;5424938;26;19929;-40
2024/04/23 10:11:06;;;;;;;;;;;15.50;60.60;;;;;;5393575;26;20374;-47
2024/04/23 10:13:43;;;;;;;;;;;15.40;60.60;;;;;;5424585;26;19949;-42
2024/04/23 10:16:27;;;;;;;;;;;15.40;60.70;;;;;;5415989;26;19998;-43
2024/04/23 10:18:53;;;;;;;;;;;15.40;60.70;;;;;;5421718;26;19933;-41
2024/04/23 10:21:20;;;;;;;;;;;15.40;60.80;;;;;;5420632;26;19936;-43
2024/04/23 10:23:46;;;;;;;;;;;15.40;60.70;;;;;;5423378;26;19938;-45
2024/04/23 10:26:13;;;;;;;;;;;15.40;60.80;;;;;;5424991;26;19929;-44
2024/04/23 10:28:39;;;;;;;;;;;15.40;60.70;;;;;;5379500;26;20267;-44
2024/04/23 10:31:05;;;;;;;;;;;15.40;60.90;;;;;;5379033;26;19975;-41
2024/04/23 10:33:31;;;;;;;;;;;15.30;60.90;;;;;;5423333;26;19937;-41
2024/04/23 10:36:00;;;;;;;;;;;15.30;60.90;;;;;;5373892;26;19951;-42
2024/04/23 10:38:28;;;;;;;;;;;15.30;60.90;;;;;;5387704;26;19939;-43
2024/04/23 10:40:54;;;;;;;;;;;15.30;61.00;;;;;;5424787;26;20302;-45
2024/04/23 10:43:20;;;;;;;;;;;15.30;61.00;;;;;;5425203;26;19936;-47
2024/04/23 10:45:46;;;;;;;;;;;15.30;61.10;;;;;;5423988;26;19953;-45
2024/04/23 10:48:12;;;;;;;;;;;15.20;61.00;;;;;;5428310;26;20339;-42
2024/04/23 10:50:38;;;;;;;;;;;15.30;61.10;;;;;;5424872;26;19932;-44
2024/04/23 10:53:04;;;;;;;;;;;15.20;61.10;;;;;;5428156;26;19929;-41
2024/04/23 10:55:30;;;;;;;;;;;15.20;61.20;;;;;;5427345;26;19929;-41
2024/04/23 10:57:56;;;;;;;;;;;15.20;61.20;;;;;;5427313;26;19929;-40
2024/04/23 11:00:40;;;;;;;;;;;15.20;61.20;;;;;;5428017;26;19933;-42
2024/04/23 11:03:16;;;;;;;;;;;15.20;61.20;;;;;;5421310;26;19937;-41
2024/04/23 11:05:46;;;;;;;;;;;15.20;61.20;;;;;;5425979;26;19936;-40
2024/04/23 11:08:20;;;;;;;;;;;15.10;61.20;;;;;;5428042;26;19957;-41
2024/04/23 11:10:49;;;;;;;;;;;15.10;61.20;;;;;;5427471;26;19929;-40
2024/04/23 11:13:35;;;;;;;;;;;15.10;61.40;;;;;;5428162;26;19933;-41
2024/04/23 11:16:02;;;;;;;;;;;15.10;61.40;;;;;;5426678;26;19933;-40
2024/04/23 11:18:37;;;;;;;;;;;15.10;61.40;;;;;;5396061;26;19940;-40
2024/04/23 11:21:03;;;;;;;;;;;15.10;61.50;;;;;;5415985;26;20019;-43
2024/04/23 11:23:29;;;;;;;;;;;15.00;61.50;;;;;;5427335;26;19933;-41
2024/04/23 11:25:55;;;;;;;;;;;15.00;61.50;;;;;;5383092;26;19928;-41
2024/04/23 11:28:21;;;;;;;;;;;15.00;61.50;;;;;;5428033;26;19933;-42
2024/04/23 11:30:56;;;;;;;;;;;15.00;61.50;;;;;;5368410;26;19937;-41
2024/04/23 11:33:23;;;;;;;;;;;15.00;61.50;;;;;;5427913;26;19978;-42
2024/04/23 11:35:49;;;;;;;;;;;15.00;61.50;;;;;;5386381;26;19949;-45
2024/04/23 11:38:15;;;;;;;;;;;15.00;61.60;;;;;;5408809;26;19936;-41
2024/04/23 11:40:41;;;;;;;;;;;14.90;61.60;;;;;;5400924;26;20653;-42
2024/04/23 11:43:07;;;;;;;;;;;14.90;61.50;;;;;;5408573;26;19929;-45
2024/04/23 11:45:33;;;;;;;;;;;14.90;61.60;;;;;;5404409;26;19946;-41
2024/04/23 11:48:01;;;;;;;;;;;14.90;61.70;;;;;;5407823;26;19947;-42
2024/04/23 11:50:27;;;;;;;;;;;14.90;61.70;;;;;;5401173;26;19936;-42
2024/04/23 11:52:52;;;;;;;;;;;14.90;61.70;;;;;;5408909;26;19946;-43
2024/04/23 11:55:18;;;;;;;;;;;14.80;61.60;;;;;;5419716;26;19929;-42
2024/04/23 11:57:44;;;;;;;;;;;14.80;61.70;;;;;;5424899;26;19953;-41
2024/04/23 12:00:10;;;;;;;;;;;14.80;61.80;;;;;;5427236;26;19936;-41
2024/04/23 12:02:36;;;;;;;;;;;14.80;61.80;;;;;;5426693;26;19928;-47
2024/04/23 12:05:03;;;;;;;;;;;14.80;61.80;;;;;;5427366;26;19997;-44
2024/04/23 12:07:29;;;;;;;;;;;14.80;61.80;;;;;;5395702;26;19929;-43
2024/04/23 12:10:03;;;;;;;;;;;14.80;61.90;;;;;;5427657;26;19929;-45
2024/04/23 12:12:35;;;;;;;;;;;14.80;61.90;;;;;;5426935;26;19929;-42
2024/04/23 12:15:01;;;;;;;;;;;14.80;61.90;;;;;;5395875;26;20358;-41
2024/04/23 12:17:27;;;;;;;;;;;14.80;61.90;;;;;;5425296;26;19932;-39
2024/04/23 12:19:55;;;;;;;;;;;14.80;62.00;;;;;;5395581;26;19936;-40
2024/04/23 12:22:21;;;;;;;;;;;14.70;61.80;;;;;;5427568;26;19929;-41
2024/04/23 12:24:47;;;;;;;;;;;14.70;61.90;;;;;;5426509;26;19943;-41
2024/04/23 12:27:12;;;;;;;;;;;14.70;61.90;;;;;;5427312;26;19933;-40
2024/04/23 12:29:38;;;;;;;;;;;14.70;62.70;;;;;;5426905;26;19933;-44
2024/04/23 12:32:04;;;;;;;;;;;14.70;62.10;;;;;;5426826;26;19928;-44
2024/04/23 12:34:30;;;;;;;;;;;14.70;62.00;;;;;;5391373;26;19930;-41
2024/04/23 12:36:56;;;;;;;;;;;14.70;62.10;;;;;;5391416;26;19976;-41
2024/04/23 12:39:22;;;;;;;;;;;14.70;62.10;;;;;;5391266;26;19929;-40
2024/04/23 12:41:48;;;;;;;;;;;14.70;62.10;;;;;;5389137;26;19929;-40
2024/04/23 12:44:14;;;;;;;;;;;14.70;62.20;;;;;;5386322;26;19969;-41
2024/04/23 12:46:40;;;;;;;;;;;14.60;62.10;;;;;;5390864;26;20389;-40
2024/04/23 12:49:06;;;;;;;;;;;14.60;62.10;;;;;;5391700;26;20383;-41
2024/04/23 12:51:32;;;;;;;;;;;14.60;62.00;;;;;;5347261;26;19975;-41
2024/04/23 12:53:58;;;;;;;;;;;14.60;62.00;;;;;;5391466;26;19934;-40
2024/04/23 12:56:24;;;;;;;;;;;14.60;62.00;;;;;;5391289;26;19937;-39
2024/04/23 12:58:56;;;;;;;;;;;14.60;62.10;;;;;;5391009;26;19938;-40
2024/04/23 13:01:22;;;;;;;;;;;14.60;62.10;;;;;;5391154;26;19933;-40
2024/04/23 13:03:48;;;;;;;;;;;14.60;62.10;;;;;;5391396;26;19944;-39
2024/04/23 13:06:14;;;;;;;;;;;14.60;62.10;;;;;;5391217;26;19942;-40
2024/04/23 13:08:39;;;;;;;;;;;14.60;61.90;;;;;;5389942;26;19929;-40
2024/04/23 13:11:05;;;;;;;;;;;14.60;62.00;;;;;;5391438;26;19929;-43
2024/04/23 13:13:31;;;;;;;;;;;14.60;61.90;;;;;;5391087;26;19930;-40
2024/04/23 13:15:57;;;;;;;;;;;14.70;62.00;;;;;;5390765;26;19930;-40
2024/04/23 13:18:23;;;;;;;;;;;14.70;62.10;;;;;;5391517;26;19976;-40
2024/04/23 13:20:49;;;;;;;;;;;14.70;61.90;;;;;;5390589;26;20376;-41
2024/04/23 13:23:15;;;;;;;;;;;14.70;61.80;;;;;;5389689;26;19937;-40
2024/04/23 13:25:42;;;;;;;;;;;14.70;61.80;;;;;;5390513;26;19937;-41
2024/04/23 13:28:08;;;;;;;;;;;14.70;61.80;;;;;;5391364;26;19934;-41
2024/04/23 13:30:34;;;;;;;;;;;14.70;61.70;;;;;;5388926;26;19964;-41
2024/04/23 13:33:00;;;;;;;;;;;14.70;61.70;;;;;;5397149;26;19929;-41
2024/04/23 13:35:26;;;;;;;;;;;14.70;61.70;;;;;;5426758;26;19936;-41
2024/04/23 13:37:52;;;;;;;;;;;14.70;61.70;;;;;;5426228;26;20320;-41
2024/04/23 13:40:18;;;;;;;;;;;14.70;61.80;;;;;;5427074;26;19929;-42
2024/04/23 13:42:44;;;;;;;;;;;14.70;61.60;;;;;;5427322;26;19929;-41
2024/04/23 13:45:10;;;;;;;;;;;14.70;61.60;;;;;;5426627;26;19929;-39
2024/04/23 13:47:38;;;;;;;;;;;14.70;61.60;;;;;;5425865;26;19936;-39
2024/04/23 13:50:04;;;;;;;;;;;14.80;61.60;;;;;;5425894;26;19945;-39
2024/04/23 13:52:30;;;;;;;;;;;14.80;61.60;;;;;;5425909;26;19929;-40
2024/04/23 13:54:56;;;;;;;;;;;14.80;61.50;;;;;;5425289;26;19929;-41
2024/04/23 13:57:22;;;;;;;;;;;14.80;61.50;;;;;;5426394;26;20297;-39
2024/04/23 13:59:48;;;;;;;;;;;14.80;61.50;;;;;;5425532;26;19972;-40
2024/04/23 14:02:13;;;;;;;;;;;14.80;61.30;;;;;;5421482;26;20350;-39
2024/04/23 14:04:44;;;;;;;;;;;14.80;61.30;;;;;;5425732;26;19937;-39
2024/04/23 14:07:13;;;;;;;;;;;14.80;61.20;;;;;;5426087;26;19937;-39
2024/04/23 14:09:39;;;;;;;;;;;14.80;61.20;;;;;;5425051;26;19933;-39
2024/04/23 14:12:05;;;;;;;;;;;14.90;61.30;;;;;;5426167;26;19936;-39
2024/04/23 14:14:31;;;;;;;;;;;14.90;61.20;;;;;;5426042;26;19932;-39
2024/04/23 14:16:56;;;;;;;;;;;14.90;61.20;;;;;;5426031;26;19929;-39